EHJR

K13-a Sea

K13-a Sea, The Netherlands
METAR EHJR 210625Z AUTO 11023KT //// // ///////// 12/09 Q1019 RE// W10/H4
Observed Flight Rules
May-21 @ 06:25 UTC (42 minutes ago)
Wind
110° at 23 knots
Temperatures Readings
Current 12°C / 54°F
Dewpoint 9°C / 48°F
Humidity 82%
Altimeter 30.09" Hg
Pressure 1019 hPa
Elevation 50
METAR EHJR 210625Z AUTO 11023KT //// // ///////// 12/09 Q1019 RE// W10/H4
Observed Flight Rules
May-21 @ 06:25 UTC
(42 minutes ago)
Wind
110° at 23 knots
Temperature Dewpoint
12°C / 54°F 9°C / 48°F
Humidity Altimeter Pressure
82% 30.09" Hg 1019 hPa